sensor_id;sensor_type;location;lat;lon;timestamp;pressure;altitude;pressure_sealevel;temperature;humidity
53699;BME280;68408;53.952;27.612;2023-12-22T00:02:06;973.5;;;3.5;76.2
53699;BME280;68408;53.952;27.612;2023-12-22T00:06:26;973.5;;;3.5;77.1
53699;BME280;68408;53.952;27.612;2023-12-22T00:12:00;973.4;;;3.5;77.2
53699;BME280;68408;53.952;27.612;2023-12-22T00:16:50;973.4;;;3.5;76.9
53699;BME280;68408;53.952;27.612;2023-12-22T00:21:32;973.3;;;3.6;76.6
53699;BME280;68408;53.952;27.612;2023-12-22T00:27:10;973.3;;;3.6;76.5
53699;BME280;68408;53.952;27.612;2023-12-22T00:31:28;973.2;;;3.6;76.1
53699;BME280;68408;53.952;27.612;2023-12-22T00:37:12;973.1;;;3.6;76.2
53699;BME280;68408;53.952;27.612;2023-12-22T00:42:12;972.9;;;3.6;76.1
53699;BME280;68408;53.952;27.612;2023-12-22T00:46:34;972.9;;;3.6;76.1
53699;BME280;68408;53.952;27.612;2023-12-22T00:51:26;972.8;;;3.6;76.2
53699;BME280;68408;53.952;27.612;2023-12-22T00:56:26;972.7;;;3.7;76
53699;BME280;68408;53.952;27.612;2023-12-22T01:01:34;972.7;;;3.7;76.1
53699;BME280;68408;53.952;27.612;2023-12-22T01:06:50;972.6;;;3.8;76.2
53699;BME280;68408;53.952;27.612;2023-12-22T01:11:30;972.5;;;3.8;76.2
53699;BME280;68408;53.952;27.612;2023-12-22T01:17:12;972.5;;;3.8;76.1
53699;BME280;68408;53.952;27.612;2023-12-22T01:21:52;972.4;;;3.8;75.9
53699;BME280;68408;53.952;27.612;2023-12-22T01:27:10;972.4;;;3.8;76.1
53699;BME280;68408;53.952;27.612;2023-12-22T01:32:12;972.3;;;3.8;76
53699;BME280;68408;53.952;27.612;2023-12-22T01:36:52;972.2;;;3.7;76.2
53699;BME280;68408;53.952;27.612;2023-12-22T01:41:26;972.2;;;3.7;76.4
53699;BME280;68408;53.952;27.612;2023-12-22T01:47:00;972.1;;;3.7;76.6
53699;BME280;68408;53.952;27.612;2023-12-22T01:51:26;972.1;;;3.8;76.5
53699;BME280;68408;53.952;27.612;2023-12-22T01:56:50;972.1;;;3.8;76.4
53699;BME280;68408;53.952;27.612;2023-12-22T02:01:42;972;;;3.8;76.3
53699;BME280;68408;53.952;27.612;2023-12-22T02:07:10;971.9;;;3.9;76.2
53699;BME280;68408;53.952;27.612;2023-12-22T02:11:44;971.9;;;3.9;76.3
53699;BME280;68408;53.952;27.612;2023-12-22T02:17:14;971.8;;;3.8;76.3
53699;BME280;68408;53.952;27.612;2023-12-22T02:22:10;971.8;;;3.8;76.4
53699;BME280;68408;53.952;27.612;2023-12-22T02:26:44;971.7;;;3.8;76.2
53699;BME280;68408;53.952;27.612;2023-12-22T02:32:02;971.7;;;3.9;75.8
53699;BME280;68408;53.952;27.612;2023-12-22T02:36:34;971.8;;;3.8;75.6
53699;BME280;68408;53.952;27.612;2023-12-22T02:41:34;971.7;;;3.8;75.6
53699;BME280;68408;53.952;27.612;2023-12-22T02:46:28;971.7;;;3.7;75.6
53699;BME280;68408;53.952;27.612;2023-12-22T02:51:42;971.7;;;3.7;76
53699;BME280;68408;53.952;27.612;2023-12-22T02:57:12;971.7;;;3.7;76
53699;BME280;68408;53.952;27.612;2023-12-22T03:01:32;971.7;;;3.6;76
53699;BME280;68408;53.952;27.612;2023-12-22T03:07:12;971.7;;;3.6;76.5
53699;BME280;68408;53.952;27.612;2023-12-22T03:12:10;971.7;;;3.6;76.6
53699;BME280;68408;53.952;27.612;2023-12-22T03:16:50;971.8;;;3.6;76.7
53699;BME280;68408;53.952;27.612;2023-12-22T03:21:32;971.8;;;3.6;76.6
53699;BME280;68408;53.952;27.612;2023-12-22T03:26:26;971.8;;;3.6;76.7
53699;BME280;68408;53.952;27.612;2023-12-22T03:31:26;971.8;;;3.6;76.3
53699;BME280;68408;53.952;27.612;2023-12-22T03:36:52;971.9;;;3.6;76.4
53699;BME280;68408;53.952;27.612;2023-12-22T03:41:34;971.8;;;3.5;76.6
53699;BME280;68408;53.952;27.612;2023-12-22T03:47:12;971.8;;;3.5;76.5
53699;BME280;68408;53.952;27.612;2023-12-22T03:51:28;971.8;;;3.5;76.5
53699;BME280;68408;53.952;27.612;2023-12-22T03:57:02;971.8;;;3.5;76.6
53699;BME280;68408;53.952;27.612;2023-12-22T04:02:10;971.8;;;3.6;76.7
53699;BME280;68408;53.952;27.612;2023-12-22T04:06:28;971.8;;;3.7;76.3
53699;BME280;68408;53.952;27.612;2023-12-22T04:11:26;971.8;;;3.7;76.1
53699;BME280;68408;53.952;27.612;2023-12-22T04:16:26;971.7;;;3.8;76
53699;BME280;68408;53.952;27.612;2023-12-22T04:21:54;971.7;;;3.8;75.9
53699;BME280;68408;53.952;27.612;2023-12-22T04:27:12;971.8;;;3.9;75.8
53699;BME280;68408;53.952;27.612;2023-12-22T04:31:34;971.9;;;3.9;75.8
53699;BME280;68408;53.952;27.612;2023-12-22T04:36:42;971.9;;;3.9;75.8
53699;BME280;68408;53.952;27.612;2023-12-22T04:41:52;971.8;;;4;75.7
53699;BME280;68408;53.952;27.612;2023-12-22T04:47:04;971.8;;;4;75.7
53699;BME280;68408;53.952;27.612;2023-12-22T04:52:14;971.8;;;4.1;75.6
53699;BME280;68408;53.952;27.612;2023-12-22T04:57:10;971.8;;;4.1;75.5
53699;BME280;68408;53.952;27.612;2023-12-22T05:02:00;971.8;;;4.1;75.3
53699;BME280;68408;53.952;27.612;2023-12-22T05:06:26;971.8;;;4.1;75.6
53699;BME280;68408;53.952;27.612;2023-12-22T05:11:44;971.7;;;4.2;75.7
53699;BME280;68408;53.952;27.612;2023-12-22T05:17:12;971.6;;;4.2;75.5
53699;BME280;68408;53.952;27.612;2023-12-22T05:21:26;971.6;;;4.2;75.6
53699;BME280;68408;53.952;27.612;2023-12-22T05:26:26;971.8;;;4.3;75.6
53699;BME280;68408;53.952;27.612;2023-12-22T05:31:36;971.7;;;4.4;75.5
53699;BME280;68408;53.952;27.612;2023-12-22T05:37:02;971.8;;;4.4;75.2
53699;BME280;68408;53.952;27.612;2023-12-22T05:42:14;971.9;;;4.4;75.4
53699;BME280;68408;53.952;27.612;2023-12-22T05:46:54;972;;;4.4;75.5
53699;BME280;68408;53.952;27.612;2023-12-22T05:52:00;972.1;;;4.4;75.7
53699;BME280;68408;53.952;27.612;2023-12-22T05:56:26;972.1;;;4.4;75.9
53699;BME280;68408;53.952;27.612;2023-12-22T06:01:26;972.2;;;4.5;76.1
53699;BME280;68408;53.952;27.612;2023-12-22T06:07:14;972.2;;;4.6;76
53699;BME280;68408;53.952;27.612;2023-12-22T06:11:34;972.3;;;4.6;75.9
53699;BME280;68408;53.952;27.612;2023-12-22T06:16:32;972.4;;;4.7;75.8
53699;BME280;68408;53.952;27.612;2023-12-22T06:21:54;972.5;;;4.7;75.6
53699;BME280;68408;53.952;27.612;2023-12-22T06:27:04;972.5;;;4.7;75.8
53699;BME280;68408;53.952;27.612;2023-12-22T06:32:14;972.5;;;4.7;75.8
53699;BME280;68408;53.952;27.612;2023-12-22T06:37:14;972.4;;;4.7;75.8
53699;BME280;68408;53.952;27.612;2023-12-22T06:41:44;972.3;;;4.8;75.7
53699;BME280;68408;53.952;27.612;2023-12-22T06:46:26;972.4;;;4.8;75.4
53699;BME280;68408;53.952;27.612;2023-12-22T06:52:04;972.5;;;4.8;75.3
53699;BME280;68408;53.952;27.612;2023-12-22T06:57:14;972.6;;;4.9;75.2
53699;BME280;68408;53.952;27.612;2023-12-22T07:02:12;972.6;;;4.9;75
53699;BME280;68408;53.952;27.612;2023-12-22T07:06:26;972.6;;;5;74.8
53699;BME280;68408;53.952;27.612;2023-12-22T07:11:52;972.6;;;5;74.7
53699;BME280;68408;53.952;27.612;2023-12-22T07:17:04;972.5;;;5.1;74.6
53699;BME280;68408;53.952;27.612;2023-12-22T07:21:46;972.6;;;5.2;74.3
53699;BME280;68408;53.952;27.612;2023-12-22T07:27:04;972.6;;;5.3;73.9
53699;BME280;68408;53.952;27.612;2023-12-22T07:32:02;972.7;;;5.4;73.3
53699;BME280;68408;53.952;27.612;2023-12-22T07:36:34;972.6;;;5.5;73
53699;BME280;68408;53.952;27.612;2023-12-22T07:41:26;972.7;;;5.5;72.6
53699;BME280;68408;53.952;27.612;2023-12-22T07:47:14;972.7;;;5.4;72.8
53699;BME280;68408;53.952;27.612;2023-12-22T07:51:34;972.7;;;5.4;72.5
53699;BME280;68408;53.952;27.612;2023-12-22T07:56:40;972.7;;;5.4;72.5
53699;BME280;68408;53.952;27.612;2023-12-22T08:01:54;972.8;;;5.4;72.5
53699;BME280;68408;53.952;27.612;2023-12-22T08:07:02;972.9;;;5.5;72.6
53699;BME280;68408;53.952;27.612;2023-12-22T08:12:14;973;;;5.5;72.2
53699;BME280;68408;53.952;27.612;2023-12-22T08:17:14;973;;;5.5;72.1
53699;BME280;68408;53.952;27.612;2023-12-22T08:21:26;973.1;;;5.6;71.8
53699;BME280;68408;53.952;27.612;2023-12-22T08:26:26;973.1;;;5.5;71.6
53699;BME280;68408;53.952;27.612;2023-12-22T08:31:34;973;;;5.5;71.2
53699;BME280;68408;53.952;27.612;2023-12-22T08:37:14;973;;;5.5;71.5
53699;BME280;68408;53.952;27.612;2023-12-22T08:41:52;973;;;5.6;71.1
53699;BME280;68408;53.952;27.612;2023-12-22T08:46:26;973;;;5.5;70.7
53699;BME280;68408;53.952;27.612;2023-12-22T08:51:34;973;;;5.5;70.5
53699;BME280;68408;53.952;27.612;2023-12-22T08:57:02;973.1;;;5.5;70.7
53699;BME280;68408;53.952;27.612;2023-12-22T09:02:14;973.1;;;5.5;70.7
53699;BME280;68408;53.952;27.612;2023-12-22T09:07:14;973.1;;;5.5;70.8
53699;BME280;68408;53.952;27.612;2023-12-22T09:11:34;973;;;5.4;70.2
53699;BME280;68408;53.952;27.612;2023-12-22T09:16:26;973.1;;;5.3;70.4
53699;BME280;68408;53.952;27.612;2023-12-22T09:21:56;973.1;;;5.4;70.4
53699;BME280;68408;53.952;27.612;2023-12-22T09:27:14;973;;;5.4;70
53699;BME280;68408;53.952;27.612;2023-12-22T09:31:34;973;;;5.4;70.4
53699;BME280;68408;53.952;27.612;2023-12-22T09:36:34;972.9;;;5.5;70
53699;BME280;68408;53.952;27.612;2023-12-22T09:41:36;972.8;;;5.5;70
53699;BME280;68408;53.952;27.612;2023-12-22T09:47:04;972.8;;;5.6;69.6
53699;BME280;68408;53.952;27.612;2023-12-22T09:52:12;972.6;;;5.7;69
53699;BME280;68408;53.952;27.612;2023-12-22T09:57:04;972.6;;;5.7;68.6
53699;BME280;68408;53.952;27.612;2023-12-22T10:02:02;972.6;;;5.7;68.7
53699;BME280;68408;53.952;27.612;2023-12-22T10:06:42;972.6;;;5.6;68.6
53699;BME280;68408;53.952;27.612;2023-12-22T10:11:34;972.6;;;5.6;68.4
53699;BME280;68408;53.952;27.612;2023-12-22T10:17:14;972.6;;;5.6;68.4
53699;BME280;68408;53.952;27.612;2023-12-22T10:21:44;972.6;;;5.7;68.4
53699;BME280;68408;53.952;27.612;2023-12-22T10:26:32;972.6;;;5.7;67.8
53699;BME280;68408;53.952;27.612;2023-12-22T10:31:46;972.7;;;5.7;68.1
53699;BME280;68408;53.952;27.612;2023-12-22T10:37:02;972.6;;;5.7;67.6
53699;BME280;68408;53.952;27.612;2023-12-22T10:41:36;972.6;;;5.7;67.5
53699;BME280;68408;53.952;27.612;2023-12-22T10:47:02;972.6;;;5.7;67.4
53699;BME280;68408;53.952;27.612;2023-12-22T10:51:26;972.6;;;5.7;67.3
53699;BME280;68408;53.952;27.612;2023-12-22T10:56:26;972.5;;;5.8;66.9
53699;BME280;68408;53.952;27.612;2023-12-22T11:01:52;972.4;;;5.8;66.9
53699;BME280;68408;53.952;27.612;2023-12-22T11:07:14;972.4;;;5.9;67.1
53699;BME280;68408;53.952;27.612;2023-12-22T11:11:27;972.4;;;5.9;66.3
53699;BME280;68408;53.952;27.612;2023-12-22T11:16:27;972.4;;;5.9;66.5
53699;BME280;68408;53.952;27.612;2023-12-22T11:21:54;972.3;;;5.9;66.5
53699;BME280;68408;53.952;27.612;2023-12-22T11:27:04;972.3;;;5.8;66.7
53699;BME280;68408;53.952;27.612;2023-12-22T11:32:14;972.3;;;5.8;66.5
53699;BME280;68408;53.952;27.612;2023-12-22T11:37:04;972.3;;;5.8;66.3
53699;BME280;68408;53.952;27.612;2023-12-22T11:42:15;972.3;;;5.7;66.8
53699;BME280;68408;53.952;27.612;2023-12-22T11:46:34;972.4;;;5.7;67.1
53699;BME280;68408;53.952;27.612;2023-12-22T11:51:36;972.3;;;5.8;67
53699;BME280;68408;53.952;27.612;2023-12-22T11:57:04;972.3;;;5.8;66.8
53699;BME280;68408;53.952;27.612;2023-12-22T12:01:34;972.3;;;5.9;66.4
53699;BME280;68408;53.952;27.612;2023-12-22T12:06:40;972.3;;;5.9;66.8
53699;BME280;68408;53.952;27.612;2023-12-22T12:12:09;972.3;;;6.1;66.1
53699;BME280;68408;53.952;27.612;2023-12-22T12:17:06;972.3;;;6.1;65.8
53699;BME280;68408;53.952;27.612;2023-12-22T12:22:14;972.3;;;6;65.6
53699;BME280;68408;53.952;27.612;2023-12-22T12:27:02;972.4;;;5.9;65.8
53699;BME280;68408;53.952;27.612;2023-12-22T12:31:35;972.4;;;5.9;65.9
53699;BME280;68408;53.952;27.612;2023-12-22T12:36:26;972.3;;;5.8;66
53699;BME280;68408;53.952;27.612;2023-12-22T12:41:44;972.3;;;5.8;66.4
53699;BME280;68408;53.952;27.612;2023-12-22T12:47:12;972.4;;;5.7;66.7
53699;BME280;68408;53.952;27.612;2023-12-22T12:51:35;972.6;;;5.7;66.3
53699;BME280;68408;53.952;27.612;2023-12-22T12:56:43;972.8;;;4.9;68.5
53699;BME280;68408;53.952;27.612;2023-12-22T13:01:54;972.8;;;4.3;70.8
53699;BME280;68408;53.952;27.612;2023-12-22T13:06:50;972.9;;;3.9;71.5
53699;BME280;68408;53.952;27.612;2023-12-22T13:12:10;972.9;;;3.8;72.1
53699;BME280;68408;53.952;27.612;2023-12-22T13:16:32;973;;;3.8;72.1
53699;BME280;68408;53.952;27.612;2023-12-22T13:21:42;973.1;;;3.8;71.2
53699;BME280;68408;53.952;27.612;2023-12-22T13:26:58;973.1;;;3.7;70.7
53699;BME280;68408;53.952;27.612;2023-12-22T13:31:54;973;;;3.5;70.6
53699;BME280;68408;53.952;27.612;2023-12-22T13:37:12;973.1;;;3.5;70.9
53699;BME280;68408;53.952;27.612;2023-12-22T13:41:54;973.1;;;3.5;70.5
53699;BME280;68408;53.952;27.612;2023-12-22T13:46:40;973.1;;;3.4;70.5
53699;BME280;68408;53.952;27.612;2023-12-22T13:51:54;973.1;;;3.5;70.5
53699;BME280;68408;53.952;27.612;2023-12-22T13:57:02;973.2;;;3.5;70.4
53699;BME280;68408;53.952;27.612;2023-12-22T14:02:12;973.2;;;3.4;69.7
53699;BME280;68408;53.952;27.612;2023-12-22T14:06:34;973.3;;;3.3;69.3
53699;BME280;68408;53.952;27.612;2023-12-22T14:11:42;973.4;;;3.3;68.7
53699;BME280;68408;53.952;27.612;2023-12-22T14:16:34;973.5;;;3.4;68.4
53699;BME280;68408;53.952;27.612;2023-12-22T14:21:44;973.5;;;3.5;67.8
53699;BME280;68408;53.952;27.612;2023-12-22T14:27:14;973.4;;;3.5;67.7
53699;BME280;68408;53.952;27.612;2023-12-22T14:31:54;973.4;;;3.5;67.9
53699;BME280;68408;53.952;27.612;2023-12-22T14:36:26;973.4;;;3.5;67.9
53699;BME280;68408;53.952;27.612;2023-12-22T14:41:36;973.4;;;3.5;67.7
53699;BME280;68408;53.952;27.612;2023-12-22T14:47:04;973.4;;;3.5;68
53699;BME280;68408;53.952;27.612;2023-12-22T14:52:14;973.4;;;3.5;68.3
53699;BME280;68408;53.952;27.612;2023-12-22T14:56:26;973.4;;;3.5;68.3
53699;BME280;68408;53.952;27.612;2023-12-22T15:01:52;973.3;;;3.5;68.5
53699;BME280;68408;53.952;27.612;2023-12-22T15:06:26;973.3;;;3.5;68.5
53699;BME280;68408;53.952;27.612;2023-12-22T15:11:56;973.3;;;3.5;68.7
53699;BME280;68408;53.952;27.612;2023-12-22T15:16:52;973.2;;;3.4;69
53699;BME280;68408;53.952;27.612;2023-12-22T15:21:36;973.2;;;3.3;69.3
53699;BME280;68408;53.952;27.612;2023-12-22T15:26:40;973.3;;;3.2;69.7
53699;BME280;68408;53.952;27.612;2023-12-22T15:31:54;973.2;;;3.1;70.1
53699;BME280;68408;53.952;27.612;2023-12-22T15:37:02;973.2;;;3;70.3
53699;BME280;68408;53.952;27.612;2023-12-22T15:42:12;973.1;;;2.9;70.5
53699;BME280;68408;53.952;27.612;2023-12-22T15:46:26;973.2;;;2.9;70.8
53699;BME280;68408;53.952;27.612;2023-12-22T15:51:52;973.2;;;2.8;70.9
53699;BME280;68408;53.952;27.612;2023-12-22T15:56:34;973.2;;;2.8;71
53699;BME280;68408;53.952;27.612;2023-12-22T16:01:26;973.2;;;2.8;71
53699;BME280;68408;53.952;27.612;2023-12-22T16:07:14;973.3;;;2.7;71.1
53699;BME280;68408;53.952;27.612;2023-12-22T16:11:50;973.3;;;2.7;71.1
53699;BME280;68408;53.952;27.612;2023-12-22T16:16:34;973.2;;;2.6;71.3
53699;BME280;68408;53.952;27.612;2023-12-22T16:21:39;973.1;;;2.5;71.6
53699;BME280;68408;53.952;27.612;2023-12-22T16:27:02;973.1;;;2.4;71.8
53699;BME280;68408;53.952;27.612;2023-12-22T16:32:12;973.2;;;2.4;71.9
53699;BME280;68408;53.952;27.612;2023-12-22T16:36:34;973.1;;;2.3;72
53699;BME280;68408;53.952;27.612;2023-12-22T16:41:52;973.1;;;2.2;72.1
53699;BME280;68408;53.952;27.612;2023-12-22T16:46:40;973.2;;;2.2;72.2
53699;BME280;68408;53.952;27.612;2023-12-22T16:51:40;973.1;;;2.2;72.2
53699;BME280;68408;53.952;27.612;2023-12-22T16:57:14;973.1;;;2.2;72.2
53699;BME280;68408;53.952;27.612;2023-12-22T17:01:28;973.1;;;2.1;72.3
53699;BME280;68408;53.952;27.612;2023-12-22T17:06:26;973;;;2.1;72.2
53699;BME280;68408;53.952;27.612;2023-12-22T17:11:52;973;;;2;72
53699;BME280;68408;53.952;27.612;2023-12-22T17:17:14;973;;;2;71.9
53699;BME280;68408;53.952;27.612;2023-12-22T17:21:52;973;;;2;72
53699;BME280;68408;53.952;27.612;2023-12-22T17:26:26;973.1;;;2;72.1
53699;BME280;68408;53.952;27.612;2023-12-22T17:31:26;973.2;;;1.9;72.1
53699;BME280;68408;53.952;27.612;2023-12-22T17:37:04;973.2;;;1.9;72.1
53699;BME280;68408;53.952;27.612;2023-12-22T17:42:12;973.1;;;1.9;72.2
53699;BME280;68408;53.952;27.612;2023-12-22T17:46:38;973.1;;;1.9;72.3
53699;BME280;68408;53.952;27.612;2023-12-22T17:52:14;973;;;1.9;72.3
53699;BME280;68408;53.952;27.612;2023-12-22T17:56:34;972.8;;;2;72.1
53699;BME280;68408;53.952;27.612;2023-12-22T18:02:02;972.8;;;1.9;72.1
53699;BME280;68408;53.952;27.612;2023-12-22T18:07:06;972.7;;;1.9;72.1
53699;BME280;68408;53.952;27.612;2023-12-22T18:11:52;972.6;;;1.9;72.1
53699;BME280;68408;53.952;27.612;2023-12-22T18:16:26;972.5;;;1.9;72
53699;BME280;68408;53.952;27.612;2023-12-22T18:22:12;972.4;;;2;71.7
53699;BME280;68408;53.952;27.612;2023-12-22T18:26:54;972.4;;;2.1;71.4
53699;BME280;68408;53.952;27.612;2023-12-22T18:32:14;972.3;;;2.1;71.2
53699;BME280;68408;53.952;27.612;2023-12-22T18:36:54;972.3;;;2.1;71.1
53699;BME280;68408;53.952;27.612;2023-12-22T18:41:28;972.3;;;2.2;70.7
53699;BME280;68408;53.952;27.612;2023-12-22T18:46:54;972.2;;;2.2;70.3
53699;BME280;68408;53.952;27.612;2023-12-22T18:51:26;972;;;2.2;70
53699;BME280;68408;53.952;27.612;2023-12-22T18:57:14;971.9;;;2;69.9
53699;BME280;68408;53.952;27.612;2023-12-22T19:01:26;971.9;;;1.9;70.1
53699;BME280;68408;53.952;27.612;2023-12-22T19:06:34;971.9;;;2;70
53699;BME280;68408;53.952;27.612;2023-12-22T19:11:42;972.1;;;2;69.6
53699;BME280;68408;53.952;27.612;2023-12-22T19:16:28;972.1;;;2;69.7
53699;BME280;68408;53.952;27.612;2023-12-22T19:22:12;972;;;2.1;69.5
53699;BME280;68408;53.952;27.612;2023-12-22T19:27:02;971.9;;;2.1;68.9
53699;BME280;68408;53.952;27.612;2023-12-22T19:31:28;971.9;;;2.1;68.6
53699;BME280;68408;53.952;27.612;2023-12-22T19:36:44;971.9;;;2.1;68.6
53699;BME280;68408;53.952;27.612;2023-12-22T19:42:04;971.8;;;2.1;68.4
53699;BME280;68408;53.952;27.612;2023-12-22T19:47:12;971.8;;;2;68.1
53699;BME280;68408;53.952;27.612;2023-12-22T19:51:44;971.8;;;2;68.1
53699;BME280;68408;53.952;27.612;2023-12-22T19:56:26;971.8;;;2.1;67.7
53699;BME280;68408;53.952;27.612;2023-12-22T20:01:26;971.9;;;2.1;67.5
53699;BME280;68408;53.952;27.612;2023-12-22T20:07:02;971.9;;;2.1;67.9
53699;BME280;68408;53.952;27.612;2023-12-22T20:12:10;971.9;;;2.1;67.6
53699;BME280;68408;53.952;27.612;2023-12-22T20:17:04;971.8;;;2.2;67.6
53699;BME280;68408;53.952;27.612;2023-12-22T20:21:54;971.8;;;2.2;67.7
53699;BME280;68408;53.952;27.612;2023-12-22T20:26:42;971.7;;;2.1;67.9
53699;BME280;68408;53.952;27.612;2023-12-22T20:31:26;971.8;;;2.2;67.9
53699;BME280;68408;53.952;27.612;2023-12-22T20:37:02;971.8;;;2.2;68.1
53699;BME280;68408;53.952;27.612;2023-12-22T20:41:36;971.7;;;2.3;68.1
53699;BME280;68408;53.952;27.612;2023-12-22T20:46:26;971.7;;;2.3;67.8
53699;BME280;68408;53.952;27.612;2023-12-22T20:51:42;971.6;;;2.3;67.7
53699;BME280;68408;53.952;27.612;2023-12-22T20:57:08;971.6;;;2.3;67.7
53699;BME280;68408;53.952;27.612;2023-12-22T21:02:08;971.6;;;2.2;67.8
53699;BME280;68408;53.952;27.612;2023-12-22T21:06:52;971.6;;;2.2;67.8
53699;BME280;68408;53.952;27.612;2023-12-22T21:11:28;971.5;;;2.3;67.6
53699;BME280;68408;53.952;27.612;2023-12-22T21:16:34;971.5;;;2.3;67.5
53699;BME280;68408;53.952;27.612;2023-12-22T21:21:44;971.5;;;2.2;67.4
53699;BME280;68408;53.952;27.612;2023-12-22T21:27:10;971.4;;;2.2;67.6
53699;BME280;68408;53.952;27.612;2023-12-22T21:32:02;971.3;;;2.2;67.6
53699;BME280;68408;53.952;27.612;2023-12-22T21:36:52;971.3;;;2.2;67.8
53699;BME280;68408;53.952;27.612;2023-12-22T21:41:32;971.1;;;2.2;67.8
53699;BME280;68408;53.952;27.612;2023-12-22T21:47:00;971;;;2.2;67.9
53699;BME280;68408;53.952;27.612;2023-12-22T21:52:10;971;;;2.2;67.9
53699;BME280;68408;53.952;27.612;2023-12-22T21:57:02;970.9;;;2.2;67.9
53699;BME280;68408;53.952;27.612;2023-12-22T22:02:00;970.9;;;2.2;68.3
53699;BME280;68408;53.952;27.612;2023-12-22T22:06:40;970.9;;;2.1;70
53699;BME280;68408;53.952;27.612;2023-12-22T22:11:52;970.9;;;2.1;71
53699;BME280;68408;53.952;27.612;2023-12-22T22:17:10;970.9;;;2.1;70.5
53699;BME280;68408;53.952;27.612;2023-12-22T22:21:26;970.8;;;2;70.6
53699;BME280;68408;53.952;27.612;2023-12-22T22:26:40;970.8;;;2.1;70.6
53699;BME280;68408;53.952;27.612;2023-12-22T22:31:38;970.9;;;2.1;70.7
53699;BME280;68408;53.952;27.612;2023-12-22T22:36:54;970.8;;;2.1;70.6
53699;BME280;68408;53.952;27.612;2023-12-22T22:42:12;970.7;;;2.1;70.9
53699;BME280;68408;53.952;27.612;2023-12-22T22:46:44;970.6;;;2.1;70.9
53699;BME280;68408;53.952;27.612;2023-12-22T22:51:54;970.6;;;2.1;70.8
53699;BME280;68408;53.952;27.612;2023-12-22T22:56:26;970.5;;;2.1;70.9
53699;BME280;68408;53.952;27.612;2023-12-22T23:01:45;970.5;;;2.1;71.1
53699;BME280;68408;53.952;27.612;2023-12-22T23:07:10;970.4;;;2.1;71.4
53699;BME280;68408;53.952;27.612;2023-12-22T23:11:50;970.4;;;2.1;71.4
53699;BME280;68408;53.952;27.612;2023-12-22T23:16:26;970.5;;;2.1;71.4
53699;BME280;68408;53.952;27.612;2023-12-22T23:21:32;970.4;;;2.1;71.5
53699;BME280;68408;53.952;27.612;2023-12-22T23:26:28;970.4;;;2.1;71.6
53699;BME280;68408;53.952;27.612;2023-12-22T23:31:28;970.4;;;2.2;71.6
53699;BME280;68408;53.952;27.612;2023-12-22T23:37:00;970.4;;;2.2;71.8
53699;BME280;68408;53.952;27.612;2023-12-22T23:41:28;970.3;;;2.3;71.6
53699;BME280;68408;53.952;27.612;2023-12-22T23:46:34;970.3;;;2.3;71.4
53699;BME280;68408;53.952;27.612;2023-12-22T23:51:26;970.2;;;2.3;71.4
53699;BME280;68408;53.952;27.612;2023-12-22T23:57:12;970.3;;;2.3;71.5
